Time;durP1;ratioP1;P1;durP2;ratioP2;P2;SDS_P1;SDS_P2;PMS_P1;PMS_P2;Temp;Humidity;BMP_temperature;BMP_pressure;BME280_temperature;BME280_humidity;BME280_pressure;Samples;Min_cycle;Max_cycle;Signal;HPM_P1;HPM_P2
2021/01/31 00:00:47;;;;;;;66.92;29.57;;;;;;;-0.61;96.93;97231.44;1732724;82;21171;-71
2021/01/31 00:03:20;;;;;;;63.52;28.15;;;;;;;-1.13;93.17;97241.55;1732624;82;21109;-70
2021/01/31 00:05:48;;;;;;;60.30;26.62;;;;;;;-1.58;93.52;97259.81;1732953;82;22124;-70
2021/01/31 00:08:17;;;;;;;54.50;24.92;;;;;;;-1.94;93.84;97251.48;1732748;82;21176;-71
2021/01/31 00:10:46;;;;;;;53.92;22.58;;;;;;;-2.20;93.71;97271.99;1732838;82;21615;-71
2021/01/31 00:13:14;;;;;;;54.93;24.18;;;;;;;-2.40;93.86;97284.36;1732898;82;21151;-71
2021/01/31 00:15:44;;;;;;;50.25;22.35;;;;;;;-2.60;94.04;97285.94;1732896;82;21219;-71
2021/01/31 00:18:13;;;;;;;53.10;23.00;;;;;;;-2.73;94.44;97304.32;1732804;82;21381;-71
2021/01/31 00:20:47;;;;;;;48.50;21.33;;;;;;;-2.85;94.34;97312.50;1732843;82;21152;-71
2021/01/31 00:23:15;;;;;;;47.88;20.65;;;;;;;-2.98;94.84;97305.14;1732995;82;21208;-71
2021/01/31 00:25:42;;;;;;;45.50;20.92;;;;;;;-3.12;94.69;97309.81;1732742;82;22219;-72
2021/01/31 00:28:11;;;;;;;44.83;21.45;;;;;;;-3.24;94.63;97318.77;1732900;82;21176;-71
2021/01/31 00:30:41;;;;;;;47.60;19.92;;;;;;;-3.34;95.32;97308.92;1732846;82;21392;-71
2021/01/31 00:33:16;;;;;;;52.78;21.20;;;;;;;-3.44;95.14;97329.66;1732740;82;21061;-71
2021/01/31 00:35:44;;;;;;;41.88;20.20;;;;;;;-3.52;95.01;97342.34;1732257;82;21167;-71
2021/01/31 00:38:13;;;;;;;45.10;19.35;;;;;;;-3.59;95.42;97345.34;1732962;82;21029;-72
2021/01/31 00:40:42;;;;;;;40.08;18.87;;;;;;;-3.61;95.59;97356.08;1732748;82;21132;-71
2021/01/31 00:43:09;;;;;;;39.92;19.65;;;;;;;-3.66;95.39;97348.86;1732842;82;21391;-71
2021/01/31 00:45:37;;;;;;;33.30;16.70;;;;;;;-3.69;95.47;97362.83;1731429;81;21068;-71
2021/01/31 00:48:05;;;;;;;38.73;18.30;;;;;;;-3.70;95.56;97367.92;1732723;81;21164;-70
2021/01/31 00:50:34;;;;;;;36.28;18.37;;;;;;;-3.76;95.18;97375.19;1731110;81;21148;-70
2021/01/31 00:53:07;;;;;;;32.95;16.12;;;;;;;-3.80;95.42;97376.02;1740315;81;21560;-70
2021/01/31 00:55:36;;;;;;;37.15;18.90;;;;;;;-3.83;95.82;97381.39;1740167;81;21386;-71
2021/01/31 00:58:04;;;;;;;37.58;15.72;;;;;;;-3.86;95.64;97395.88;1745434;81;21525;-70
2021/01/31 01:00:35;;;;;;;36.95;17.50;;;;;;;-3.91;95.71;97398.59;1706767;82;21128;-70
2021/01/31 01:03:06;;;;;;;36.73;17.35;;;;;;;-3.93;96.15;97403.41;1735028;82;21082;-70
2021/01/31 01:05:44;;;;;;;39.60;20.00;;;;;;;-3.91;95.99;97410.65;1870221;76;22733;-73
2021/01/31 01:08:12;;;;;;;38.75;18.15;;;;;;;-3.97;95.87;97414.42;1758403;81;21486;-70
2021/01/31 01:10:39;;;;;;;35.68;17.48;;;;;;;-3.96;96.18;97419.51;1780227;80;21206;-73
2021/01/31 01:13:07;;;;;;;35.15;15.70;;;;;;;-3.93;96.05;97431.02;1757629;81;21026;-71
2021/01/31 01:15:34;;;;;;;35.25;17.20;;;;;;;-3.93;95.61;97436.92;1780271;80;20923;-71
2021/01/31 01:18:02;;;;;;;33.45;15.75;;;;;;;-3.93;95.54;97443.62;1779366;79;21728;-71
2021/01/31 01:20:29;;;;;;;28.80;14.18;;;;;;;-3.93;95.45;97437.72;1768104;80;20993;-72
2021/01/31 01:22:57;;;;;;;20.15;10.98;;;;;;;-3.95;94.75;97440.41;1751013;81;21350;-72
2021/01/31 01:25:26;;;;;;;20.17;10.68;;;;;;;-3.99;94.40;97455.70;1750906;80;21096;-73
2021/01/31 01:27:54;;;;;;;23.57;10.50;;;;;;;-3.99;93.96;97446.32;1751177;82;21607;-72
2021/01/31 01:30:26;;;;;;;26.17;11.53;;;;;;;-3.99;93.55;97456.23;1754429;80;21019;-72
2021/01/31 01:32:54;;;;;;;25.30;12.82;;;;;;;-4.00;93.66;97456.77;1767648;80;20926;-72
2021/01/31 01:35:23;;;;;;;24.20;12.47;;;;;;;-3.99;93.75;97467.76;1766555;81;21288;-71
2021/01/31 01:37:50;;;;;;;26.77;13.22;;;;;;;-3.99;93.70;97465.08;1766584;81;20942;-72
2021/01/31 01:40:26;;;;;;;20.90;10.93;;;;;;;-4.00;93.58;97470.17;1747117;81;22217;-71
2021/01/31 01:42:54;;;;;;;23.40;12.18;;;;;;;-3.99;93.61;97467.76;1766817;81;21457;-71
2021/01/31 01:45:22;;;;;;;20.45;11.80;;;;;;;-3.99;93.35;97470.44;1766601;81;21081;-71
2021/01/31 01:47:51;;;;;;;23.57;12.10;;;;;;;-4.04;92.90;97470.98;1772907;80;21092;-71
2021/01/31 01:50:33;;;;;;;21.90;10.75;;;;;;;-4.07;93.08;97471.02;1773882;79;20997;-72
2021/01/31 01:53:01;;;;;;;20.52;11.25;;;;;;;-4.10;93.08;97478.80;1754629;80;20953;-71
2021/01/31 01:55:33;;;;;;;19.55;9.73;;;;;;;-4.16;92.75;97483.91;1750913;82;20985;-71
2021/01/31 01:58:05;;;;;;;20.90;11.10;;;;;;;-4.24;92.53;97486.59;1751125;82;20941;-71
2021/01/31 02:00:34;;;;;;;21.42;10.68;;;;;;;-4.31;92.46;97507.50;1751042;82;21189;-71
2021/01/31 02:03:06;;;;;;;15.40;8.45;;;;;;;-4.36;92.60;97530.27;1750952;82;20921;-71
2021/01/31 02:05:33;;;;;;;18.82;9.60;;;;;;;-4.37;92.65;97540.72;1750966;81;20945;-71
2021/01/31 02:08:01;;;;;;;16.80;8.78;;;;;;;-4.36;92.84;97561.08;1767927;80;21061;-71
2021/01/31 02:10:29;;;;;;;14.53;7.78;;;;;;;-4.36;92.81;97571.80;1757696;81;21125;-71
2021/01/31 02:13:00;;;;;;;16.07;8.28;;;;;;;-4.34;92.88;97576.34;1780440;80;21466;-71
2021/01/31 02:15:28;;;;;;;16.90;9.13;;;;;;;-4.32;93.12;97577.69;1780061;80;21117;-70
2021/01/31 02:18:21;;;;;;;17.57;9.03;;;;;;;-4.29;93.00;97581.70;1788338;80;20927;-71
2021/01/31 02:21:14;;;;;;;18.00;8.85;;;;;;;-4.27;92.93;97591.63;1785089;79;21040;-71
2021/01/31 02:24:11;;;;;;;17.80;8.88;;;;;;;-4.25;93.06;97588.14;1773125;79;21013;-72
2021/01/31 02:27:16;;;;;;;15.23;8.18;;;;;;;-4.19;93.43;97595.11;1781463;80;21667;-72
2021/01/31 02:30:05;;;;;;;17.70;8.73;;;;;;;-4.19;93.12;97600.47;1781548;80;21647;-70
2021/01/31 02:33:21;;;;;;;16.20;8.33;;;;;;;-4.15;93.73;97600.73;1781212;79;20921;-70
2021/01/31 02:35:49;;;;;;;14.98;7.87;;;;;;;-4.12;93.31;97610.92;1781443;80;20949;-69
2021/01/31 02:38:26;;;;;;;17.55;7.70;;;;;;;-4.12;93.14;97612.26;1781399;80;20988;-70
2021/01/31 02:41:01;;;;;;;16.05;7.95;;;;;;;-4.10;93.24;97620.30;1781153;80;23519;-69
2021/01/31 02:43:50;;;;;;;13.35;7.55;;;;;;;-4.08;93.12;97619.49;1781029;80;21029;-70
2021/01/31 02:46:32;;;;;;;15.25;8.45;;;;;;;-4.05;93.26;97628.34;1787130;79;20998;-71
2021/01/31 02:49:18;;;;;;;;;;;;;;;-4.01;93.49;97638.77;1787208;79;21678;-71
2021/01/31 02:51:53;;;;;;;17.32;8.15;;;;;;;-3.99;92.83;97648.68;1767699;79;20504;-70
2021/01/31 02:54:43;;;;;;;14.53;7.47;;;;;;;-4.02;92.33;97648.41;1743298;82;21394;-70
2021/01/31 02:57:37;;;;;;;14.50;7.95;;;;;;;-4.02;93.03;97657.79;1767632;80;20987;-71
2021/01/31 03:00:16;;;;;;;13.35;7.75;;;;;;;-4.02;92.33;97668.52;1769321;80;21080;-71
2021/01/31 03:03:04;;;;;;;16.35;7.58;;;;;;;-4.03;92.25;97673.07;1768176;80;20993;-71
2021/01/31 03:05:35;;;;;;;16.00;7.50;;;;;;;-4.00;92.27;97678.44;1761390;80;21068;-71
2021/01/31 03:08:08;;;;;;;16.73;6.92;;;;;;;-4.00;91.82;97684.59;1781733;80;21388;-72
2021/01/31 03:10:49;;;;;;;10.93;6.58;;;;;;;-3.97;91.72;97693.17;1781647;80;20933;-71
2021/01/31 03:13:25;;;;;;;11.30;6.17;;;;;;;-3.92;91.86;97694.52;1776053;80;21015;-71
2021/01/31 03:15:57;;;;;;;11.95;6.67;;;;;;;-3.90;91.38;97704.44;1766914;80;21101;-72
2021/01/31 03:18:42;;;;;;;13.35;6.67;;;;;;;-3.89;91.27;97709.53;1772458;80;26605;-70
2021/01/31 03:21:16;;;;;;;10.28;7.08;;;;;;;-3.88;91.32;97715.17;1769332;80;21208;-71
2021/01/31 03:23:58;;;;;;;13.58;7.10;;;;;;;-3.88;90.99;97725.89;1774128;80;20899;-71
2021/01/31 03:26:45;;;;;;;13.40;6.70;;;;;;;-3.88;90.93;97717.84;1768624;79;21500;-72
2021/01/31 03:29:13;;;;;;;12.98;6.72;;;;;;;-3.86;91.10;97725.09;1738317;81;20939;-72
2021/01/31 03:31:45;;;;;;;14.38;7.22;;;;;;;-3.85;90.53;97729.91;1779941;80;21002;-72
2021/01/31 03:34:16;;;;;;;;;;;;;;;-3.85;90.39;97733.94;1760076;81;22325;-72
2021/01/31 03:36:46;;;;;;;13.78;6.80;;;;;;;-3.83;90.74;97732.59;1757299;81;20144;-73
2021/01/31 03:39:13;;;;;;;14.23;7.20;;;;;;;-3.83;90.18;97711.69;1779961;80;20954;-73
2021/01/31 03:41:42;;;;;;;14.35;7.60;;;;;;;-3.86;89.89;97751.90;1757343;81;20896;-73
2021/01/31 03:44:10;;;;;;;12.18;7.42;;;;;;;-3.87;90.19;97762.35;1778604;80;21007;-73
2021/01/31 03:46:52;;;;;;;16.12;8.58;;;;;;;-3.89;89.79;97770.39;1766255;81;21430;-72
2021/01/31 03:49:30;;;;;;;17.95;7.47;;;;;;;-3.90;89.62;97778.16;1766280;81;21564;-71
2021/01/31 03:51:57;;;;;;;15.43;8.18;;;;;;;-3.93;89.76;97782.72;1766243;81;20978;-72
2021/01/31 03:54:25;;;;;;;15.83;7.12;;;;;;;-3.96;89.09;97781.91;1766334;81;21489;-73
2021/01/31 03:57:11;;;;;;;12.25;6.72;;;;;;;-4.01;88.97;97795.56;1766286;81;20926;-72
2021/01/31 03:59:49;;;;;;;17.00;7.72;;;;;;;-4.01;89.48;97798.78;1735781;81;22265;-72
2021/01/31 04:02:19;;;;;;;17.12;6.80;;;;;;;-4.01;89.85;97803.60;1765372;81;21014;-72
2021/01/31 04:04:47;;;;;;;14.90;7.97;;;;;;;-3.98;89.75;97800.93;1722598;81;21132;-72
2021/01/31 04:07:36;;;;;;;15.05;8.48;;;;;;;-3.98;89.69;97812.99;1766278;80;20946;-72
2021/01/31 04:10:05;;;;;;;15.90;8.03;;;;;;;-3.99;89.71;97823.44;1770358;80;21044;-72
2021/01/31 04:12:37;;;;;;;19.70;8.20;;;;;;;-4.00;89.47;97836.04;1750785;82;22267;-71
2021/01/31 04:15:16;;;;;;;12.05;6.70;;;;;;;-4.01;89.40;97830.41;1750917;82;20941;-72
2021/01/31 04:17:44;;;;;;;17.42;8.13;;;;;;;-4.02;89.21;97839.52;1750673;82;20937;-72
2021/01/31 04:20:12;;;;;;;16.87;8.63;;;;;;;-4.05;89.00;97844.09;1750626;82;20937;-72
2021/01/31 04:22:39;;;;;;;14.23;7.85;;;;;;;-4.04;88.94;97847.02;1750617;80;20989;-71
2021/01/31 04:25:09;;;;;;;13.75;7.60;;;;;;;-4.05;88.85;97860.70;1749675;82;22362;-71
2021/01/31 04:27:37;;;;;;;15.60;8.40;;;;;;;-4.07;88.85;97869.02;1750401;80;21186;-70
2021/01/31 04:30:08;;;;;;;16.12;8.15;;;;;;;-4.06;88.86;97869.28;1765060;80;20962;-71
2021/01/31 04:32:36;;;;;;;16.40;8.77;;;;;;;-4.07;88.46;97869.55;1757130;81;20910;-71
2021/01/31 04:35:11;;;;;;;15.45;8.78;;;;;;;-4.08;88.51;97867.40;1777069;80;21050;-71
2021/01/31 04:37:38;;;;;;;16.80;7.97;;;;;;;-4.09;88.34;97879.19;1757006;81;21134;-71
2021/01/31 04:40:08;;;;;;;13.80;8.23;;;;;;;-4.10;88.44;97884.27;1771054;81;21497;-71
2021/01/31 04:42:36;;;;;;;16.05;8.10;;;;;;;-4.09;88.75;97890.44;1756427;80;21478;-71
2021/01/31 04:45:06;;;;;;;12.33;6.95;;;;;;;-4.09;88.66;97898.48;1775336;80;20961;-71
2021/01/31 04:47:37;;;;;;;18.52;8.75;;;;;;;-4.10;89.05;97896.33;1750135;79;21067;-71
2021/01/31 04:50:22;;;;;;;18.82;8.40;;;;;;;-4.07;89.18;97903.85;1770358;80;21334;-70
2021/01/31 04:53:15;;;;;;;15.00;8.33;;;;;;;-4.06;88.97;97910.83;1769738;80;21583;-70
2021/01/31 04:56:00;;;;;;;17.87;9.48;;;;;;;-4.05;88.91;97917.80;1750609;82;21462;-71
2021/01/31 04:58:43;;;;;;;21.20;9.43;;;;;;;-4.04;88.93;97922.59;1750619;82;21012;-70
2021/01/31 05:01:25;;;;;;;16.50;7.30;;;;;;;-4.04;88.82;97930.63;1749833;82;21005;-71
2021/01/31 05:04:03;;;;;;;20.20;8.15;;;;;;;-4.05;88.83;97928.52;1750786;82;22227;-71
2021/01/31 05:06:47;;;;;;;19.70;9.28;;;;;;;-4.02;89.20;97936.55;1750412;80;21080;-71
2021/01/31 05:09:24;;;;;;;19.20;9.48;;;;;;;-4.02;89.08;97937.35;1750649;82;20950;-76
2021/01/31 05:12:14;;;;;;;25.32;10.72;;;;;;;-4.02;88.94;97954.77;1750713;82;20929;-78
2021/01/31 05:15:20;;;;;;;19.60;9.90;;;;;;;-4.03;89.26;97945.66;1701024;80;20954;-80
2021/01/31 05:17:49;;;;;;;20.90;9.95;;;;;;;-4.05;89.28;97952.64;1732809;82;21201;-77
2021/01/31 05:20:24;;;;;;;18.52;9.40;;;;;;;-4.06;89.35;97958.27;1750538;80;21080;-78
2021/01/31 05:22:54;;;;;;;21.52;9.58;;;;;;;-4.04;89.70;97967.63;1750402;80;20945;-76
2021/01/31 05:25:25;;;;;;;22.15;10.72;;;;;;;-4.02;89.62;97978.90;1750536;82;20953;-77
2021/01/31 05:27:55;;;;;;;23.40;10.53;;;;;;;-3.99;89.61;97986.42;1750982;82;21476;-78
2021/01/31 05:30:24;;;;;;;24.35;11.55;;;;;;;-3.99;89.63;97986.42;1750591;82;21382;-77
2021/01/31 05:33:11;;;;;;;25.72;11.40;;;;;;;-3.92;89.99;97986.72;1750596;82;20961;-77
2021/01/31 05:35:52;;;;;;;27.98;11.10;;;;;;;-3.91;89.75;98000.41;1750512;82;21028;-78
2021/01/31 05:38:40;;;;;;;25.88;11.33;;;;;;;-3.91;89.83;97999.87;1750679;82;21556;-77
2021/01/31 05:41:47;;;;;;;23.10;11.68;;;;;;;-3.88;90.11;98002.03;1750637;82;21020;-77
2021/01/31 05:44:25;;;;;;;23.22;10.93;;;;;;;-3.85;90.08;97994.81;1750651;82;22263;-78
2021/01/31 05:46:58;;;;;;;23.65;10.95;;;;;;;-3.87;89.69;98000.96;1750392;82;21515;-77
2021/01/31 05:49:36;;;;;;;25.27;11.88;;;;;;;-3.85;89.67;98011.43;1750610;82;20894;-80
2021/01/31 05:52:12;;;;;;;27.07;11.40;;;;;;;-3.84;89.68;98013.05;1750706;82;20952;-74
2021/01/31 05:54:40;;;;;;;26.27;11.30;;;;;;;-3.80;89.87;98011.45;1751426;80;21103;-76
2021/01/31 05:57:29;;;;;;;23.55;10.43;;;;;;;-3.79;89.64;98019.24;1781659;80;21195;-73
2021/01/31 06:00:04;;;;;;;23.95;10.58;;;;;;;-3.77;89.55;98024.34;1781563;80;21056;-75
2021/01/31 06:02:40;;;;;;;20.75;9.50;;;;;;;-3.68;89.56;98025.47;1871819;76;22736;-75
2021/01/31 06:05:19;;;;;;;21.52;10.50;;;;;;;-3.68;89.33;98036.20;1840871;78;21007;-76
2021/01/31 06:07:49;;;;;;;23.25;10.78;;;;;;;-3.67;88.94;98040.49;1828230;76;22259;-74
2021/01/31 06:10:19;;;;;;;22.32;10.15;;;;;;;-3.64;89.11;98045.34;1784331;78;21554;-74
2021/01/31 06:12:48;;;;;;;23.62;11.00;;;;;;;-3.61;88.84;98046.69;1807534;79;20960;-74
2021/01/31 06:15:25;;;;;;;22.32;10.95;;;;;;;-3.58;88.83;98058.24;1807721;79;21090;-75
2021/01/31 06:18:05;;;;;;;21.33;9.98;;;;;;;-3.56;88.38;98059.59;1779244;79;21095;-73
2021/01/31 06:20:37;;;;;;;25.12;10.60;;;;;;;-3.55;88.24;98073.28;1808205;79;21184;-74
2021/01/31 06:23:05;;;;;;;19.75;9.85;;;;;;;-3.55;88.13;98080.52;1808614;79;21014;-74
2021/01/31 06:25:38;;;;;;;21.62;10.25;;;;;;;-3.53;88.12;98087.24;1811752;76;21030;-74
2021/01/31 06:28:18;;;;;;;19.40;10.13;;;;;;;-3.51;88.01;98085.11;1808499;79;21561;-77
2021/01/31 06:31:17;;;;;;;22.93;10.63;;;;;;;-3.49;87.77;98094.23;1808649;79;20976;-74
2021/01/31 06:33:45;;;;;;;24.10;9.60;;;;;;;-3.47;87.73;98094.78;1810331;77;21269;-74
2021/01/31 06:36:42;;;;;;;18.12;8.85;;;;;;;-3.45;87.71;98094.77;1841596;77;21510;-74
2021/01/31 06:39:36;;;;;;;18.80;9.05;;;;;;;-3.41;87.83;98100.42;1734724;82;21475;-74
2021/01/31 06:42:46;;;;;;;20.43;9.60;;;;;;;-3.40;87.66;98106.88;1826863;78;20968;-74
2021/01/31 06:45:26;;;;;;;26.70;11.75;;;;;;;-3.37;87.67;98109.03;1841666;78;21003;-74
2021/01/31 06:48:30;;;;;;;30.60;13.95;;;;;;;-3.30;87.71;98108.80;1841660;78;21546;-73
2021/01/31 06:51:10;;;;;;;24.67;10.80;;;;;;;-3.24;87.50;98107.76;1841599;78;21479;-74
2021/01/31 06:54:10;;;;;;;28.30;12.58;;;;;;;-3.21;87.09;98102.41;1816761;78;20936;-74
2021/01/31 06:56:44;;;;;;;22.37;11.12;;;;;;;-3.20;86.89;98120.93;1820323;76;20872;-77
2021/01/31 06:59:38;;;;;;;24.10;10.75;;;;;;;-3.19;86.81;98122.55;1838586;78;20984;-74
2021/01/31 07:02:40;;;;;;;23.98;11.20;;;;;;;-3.19;86.21;98115.03;1799279;78;21423;-75
2021/01/31 07:05:48;;;;;;;27.97;12.93;;;;;;;-3.19;85.72;98126.57;1831291;76;20928;-79
2021/01/31 07:08:45;;;;;;;31.48;12.35;;;;;;;-3.18;86.13;98134.09;1823017;78;20920;-78
2021/01/31 07:11:27;;;;;;;43.40;16.95;;;;;;;-3.14;85.46;98135.99;1808284;79;21545;-74
2021/01/31 07:14:32;;;;;;;43.52;15.78;;;;;;;-3.10;85.42;98142.45;1808006;78;21500;-74
2021/01/31 07:17:40;;;;;;;41.63;17.05;;;;;;;-3.04;85.27;98144.62;1807776;78;21192;-75
2021/01/31 07:20:29;;;;;;;39.23;14.95;;;;;;;-2.97;85.18;98155.94;1807600;78;20908;-75
2021/01/31 07:23:07;;;;;;;32.25;13.45;;;;;;;-2.91;85.00;98156.23;1821489;78;20943;-85
2021/01/31 07:25:55;;;;;;;28.32;12.37;;;;;;;-2.88;84.66;98165.61;1841477;78;20932;-72
2021/01/31 07:28:36;;;;;;;26.42;10.88;;;;;;;-2.83;85.20;98172.35;1829605;78;20948;-80
2021/01/31 07:31:46;;;;;;;25.72;11.63;;;;;;;-2.79;83.90;98180.16;1808086;78;21370;-82
2021/01/31 07:34:39;;;;;;;30.70;12.53;;;;;;;-2.78;83.94;98187.14;1808004;78;21114;-72
2021/01/31 07:37:11;;;;;;;24.45;11.33;;;;;;;-2.74;84.00;98186.89;1841102;78;20920;-72
2021/01/31 07:40:08;;;;;;;27.15;12.00;;;;;;;-2.68;83.34;98195.25;1831385;76;20921;-76
2021/01/31 07:42:37;;;;;;;29.77;12.88;;;;;;;-2.66;83.26;98194.45;1839859;78;20964;-74
2021/01/31 07:45:19;;;;;;;26.85;13.08;;;;;;;-2.67;83.19;98199.55;1841115;78;22258;-73
2021/01/31 07:47:47;;;;;;;25.27;12.23;;;;;;;-2.62;83.08;98210.32;1840941;78;21051;-74
2021/01/31 07:50:19;;;;;;;22.67;11.18;;;;;;;-2.59;82.55;98206.30;1826239;76;20972;-72
2021/01/31 07:52:53;;;;;;;23.85;11.25;;;;;;;-2.59;81.91;98217.86;1831539;76;20929;-72
2021/01/31 07:55:41;;;;;;;26.57;12.63;;;;;;;-2.57;82.45;98217.05;1839952;78;21015;-72
2021/01/31 07:58:29;;;;;;;38.55;14.98;;;;;;;-2.51;81.72;98220.57;1839768;78;21358;-72
2021/01/31 08:00:57;;;;;;;41.35;13.35;;;;;;;-2.47;81.38;98228.38;1839757;77;20968;-72
2021/01/31 08:03:36;;;;;;;49.58;15.95;;;;;;;-2.45;79.91;98235.11;1839759;78;21164;-71
2021/01/31 08:06:22;;;;;;;29.07;12.28;;;;;;;-2.44;79.63;98230.01;1840151;78;21114;-72
2021/01/31 08:08:52;;;;;;;30.27;11.88;;;;;;;-2.40;79.45;98241.84;1835975;78;21027;-71
2021/01/31 08:11:27;;;;;;;41.85;14.63;;;;;;;-2.34;79.47;98246.17;1807877;79;22271;-71
2021/01/31 08:13:55;;;;;;;41.88;11.35;;;;;;;-2.26;78.07;98245.36;1807969;79;21007;-71
2021/01/31 08:17:05;;;;;;;47.60;14.58;;;;;;;-2.20;75.59;98242.95;1808034;79;21128;-71
2021/01/31 08:19:33;;;;;;;43.02;14.90;;;;;;;-2.16;75.38;98254.27;1761159;81;21500;-72
2021/01/31 08:22:11;;;;;;;38.42;12.78;;;;;;;-2.04;75.91;98258.88;1761135;81;20887;-73
2021/01/31 08:25:02;;;;;;;42.00;13.15;;;;;;;-1.82;75.32;98256.50;1760888;81;21421;-72
2021/01/31 08:27:45;;;;;;;49.30;15.20;;;;;;;-1.57;75.13;98262.42;1724580;83;21022;-71
2021/01/31 08:30:40;;;;;;;42.85;14.68;;;;;;;-1.42;73.28;98269.97;1734167;82;21042;-72
2021/01/31 08:33:27;;;;;;;19.02;7.58;;;;;;;-1.39;72.57;98281.55;1731288;82;21172;-72
2021/01/31 08:36:07;;;;;;;21.50;8.88;;;;;;;-1.47;70.98;98277.23;1736205;81;21065;-73
2021/01/31 08:38:41;;;;;;;39.45;12.03;;;;;;;-1.54;72.56;98285.57;1740882;82;21471;-72
2021/01/31 08:41:29;;;;;;;59.42;16.82;;;;;;;-1.49;73.23;98288.27;1740845;82;21106;-72
2021/01/31 08:44:01;;;;;;;49.48;13.93;;;;;;;-1.44;72.75;98290.16;1740964;82;21570;-73
2021/01/31 08:46:31;;;;;;;34.43;12.37;;;;;;;-1.42;71.46;98297.42;1737218;82;21155;-73
2021/01/31 08:49:14;;;;;;;35.23;12.80;;;;;;;-1.42;72.26;98300.13;1740864;81;21016;-73
2021/01/31 08:51:45;;;;;;;34.13;12.55;;;;;;;-1.41;72.17;98297.16;1740875;81;22045;-73
2021/01/31 08:54:18;;;;;;;40.20;13.38;;;;;;;-1.36;71.64;98302.55;1740834;82;20953;-73
2021/01/31 08:56:53;;;;;;;41.45;13.62;;;;;;;-1.24;71.27;98302.82;1740859;82;21064;-74
2021/01/31 08:59:28;;;;;;;23.75;9.55;;;;;;;-1.21;69.38;98300.94;1740852;82;20983;-72
2021/01/31 09:02:26;;;;;;;24.32;8.95;;;;;;;-1.22;69.43;98300.13;1740776;82;21615;-73
2021/01/31 09:05:08;;;;;;;21.68;7.97;;;;;;;-1.19;69.50;98308.21;1740401;82;21436;-72
2021/01/31 09:07:37;;;;;;;23.92;8.15;;;;;;;-1.06;68.72;98304.95;1740760;82;20963;-72
2021/01/31 09:10:44;;;;;;;13.32;6.67;;;;;;;-0.43;67.46;98304.81;1740818;82;21616;-72
2021/01/31 09:13:16;;;;;;;13.03;6.60;;;;;;;0.35;65.00;98304.72;1740815;82;20944;-72
2021/01/31 09:15:44;;;;;;;16.55;7.03;;;;;;;0.71;61.87;98308.77;1740962;82;21486;-72
2021/01/31 09:18:21;;;;;;;20.32;7.10;;;;;;;0.80;61.91;98309.78;1737648;82;21203;-72
2021/01/31 09:20:49;;;;;;;25.72;8.88;;;;;;;0.81;60.26;98310.05;1732914;82;20924;-72
2021/01/31 09:23:34;;;;;;;24.15;8.05;;;;;;;0.82;59.70;98309.50;1732961;82;21035;-72
2021/01/31 09:26:02;;;;;;;16.82;7.30;;;;;;;0.87;59.41;98314.87;1754085;81;20947;-72
2021/01/31 09:28:30;;;;;;;16.00;7.25;;;;;;;0.95;58.95;98325.88;1754097;81;21137;-73
2021/01/31 09:31:02;;;;;;;15.20;7.72;;;;;;;1.02;58.56;98330.16;1753998;81;21351;-73
2021/01/31 09:33:38;;;;;;;19.57;7.40;;;;;;;1.13;58.64;98327.62;1754170;81;21041;-72
2021/01/31 09:36:29;;;;;;;16.45;7.40;;;;;;;1.25;59.66;98326.14;1754121;81;20958;-73
2021/01/31 09:38:58;;;;;;;17.35;7.22;;;;;;;1.47;57.90;98331.61;1754361;81;21628;-73
2021/01/31 09:41:28;;;;;;;13.30;6.03;;;;;;;1.51;56.85;98334.01;1754126;81;21485;-73
2021/01/31 09:44:05;;;;;;;16.07;6.85;;;;;;;1.57;57.53;98339.08;1754102;81;22637;-73
2021/01/31 09:46:33;;;;;;;14.28;6.92;;;;;;;1.81;56.89;98340.97;1754044;81;21504;-73
2021/01/31 09:49:15;;;;;;;11.85;6.15;;;;;;;1.97;56.78;98347.27;1722917;81;21096;-73
2021/01/31 09:51:43;;;;;;;15.43;7.45;;;;;;;2.06;55.02;98354.77;1751718;81;21034;-73
2021/01/31 09:54:19;;;;;;;16.73;8.05;;;;;;;1.96;55.63;98361.91;1745967;81;21144;-73
2021/01/31 09:56:52;;;;;;;13.03;6.28;;;;;;;1.89;56.45;98370.91;1741037;81;21622;-72
2021/01/31 09:59:32;;;;;;;14.55;7.47;;;;;;;1.83;55.91;98374.77;1737495;81;21022;-72
2021/01/31 10:02:10;;;;;;;17.92;9.00;;;;;;;1.90;56.47;98367.11;1736826;82;21023;-73
2021/01/31 10:04:39;;;;;;;19.87;9.13;;;;;;;2.14;55.66;98377.94;1736907;82;20955;-73
2021/01/31 10:07:09;;;;;;;26.02;11.30;;;;;;;2.29;55.01;98381.02;1736853;82;21060;-73
2021/01/31 10:09:41;;;;;;;26.82;13.48;;;;;;;2.33;54.39;98388.23;1736902;82;22290;-73
2021/01/31 10:12:33;;;;;;;28.60;13.88;;;;;;;2.43;55.60;98389.21;1736774;82;20999;-73
2021/01/31 10:15:06;;;;;;;21.80;10.70;;;;;;;2.60;54.49;98391.69;1740798;81;21477;-73
2021/01/31 10:17:39;;;;;;;26.82;11.38;;;;;;;2.85;53.65;98395.95;1741281;81;21498;-73
2021/01/31 10:20:38;;;;;;;20.88;9.90;;;;;;;2.83;52.80;98396.80;1744950;81;21054;-73
2021/01/31 10:23:14;;;;;;;30.88;11.85;;;;;;;3.07;52.40;98405.38;1746836;81;21387;-73
2021/01/31 10:25:59;;;;;;;27.77;11.75;;;;;;;3.30;52.38;98401.76;1746477;81;21085;-73
2021/01/31 10:28:36;;;;;;;26.75;11.25;;;;;;;3.28;51.24;98404.77;1741097;81;21156;-73
2021/01/31 10:31:04;;;;;;;29.75;12.47;;;;;;;3.21;52.21;98411.11;1737705;82;20948;-73
2021/01/31 10:33:39;;;;;;;18.98;8.15;;;;;;;3.20;53.34;98409.50;1748450;82;20893;-73
2021/01/31 10:36:34;;;;;;;23.85;8.35;;;;;;;3.06;52.34;98418.13;1748482;81;21220;-73
2021/01/31 10:39:16;;;;;;;19.00;8.43;;;;;;;2.86;51.79;98418.44;1746783;81;21104;-73
2021/01/31 10:41:45;;;;;;;15.23;6.03;;;;;;;2.76;52.14;98421.30;1746976;81;21104;-72
2021/01/31 10:44:26;;;;;;;21.33;8.98;;;;;;;2.73;51.91;98419.16;1746940;81;21084;-72
2021/01/31 10:46:54;;;;;;;25.25;10.68;;;;;;;2.60;52.11;98418.78;1747734;81;21065;-72
2021/01/31 10:49:22;;;;;;;31.68;13.43;;;;;;;2.71;51.79;98420.00;1737602;81;22278;-72
2021/01/31 10:51:49;;;;;;;19.90;9.88;;;;;;;3.00;51.36;98419.30;1712039;83;21164;-73
2021/01/31 10:54:18;;;;;;;20.72;9.45;;;;;;;3.48;51.28;98423.95;1743931;81;21187;-73
2021/01/31 10:56:46;;;;;;;34.18;12.05;;;;;;;3.93;50.41;98425.08;1747172;81;21129;-74
2021/01/31 10:59:13;;;;;;;21.97;9.70;;;;;;;4.44;49.47;98418.64;1743004;81;21051;-73
2021/01/31 11:01:46;;;;;;;21.40;8.63;;;;;;;4.79;47.45;98419.79;1750140;81;21827;-72
2021/01/31 11:04:16;;;;;;;16.23;7.90;;;;;;;4.96;48.36;98428.11;1708630;83;21090;-72
2021/01/31 11:06:45;;;;;;;22.73;9.10;;;;;;;5.25;47.50;98432.34;1728274;81;21481;-72
2021/01/31 11:09:15;;;;;;;14.73;7.15;;;;;;;5.51;47.02;98430.63;1703728;84;20957;-72
2021/01/31 11:11:43;;;;;;;15.83;8.30;;;;;;;5.82;47.20;98432.56;1724250;83;21069;-72
2021/01/31 11:14:11;;;;;;;14.95;7.83;;;;;;;6.42;44.91;98430.70;1703850;84;22262;-72
2021/01/31 11:16:39;;;;;;;19.05;8.98;;;;;;;6.42;44.91;98430.70;1724227;83;21014;-72
2021/01/31 11:19:07;;;;;;;21.73;9.73;;;;;;;6.51;44.38;98428.25;1722816;83;21197;-72
2021/01/31 11:21:34;;;;;;;18.95;8.85;;;;;;;6.56;42.80;98430.84;1679783;84;21586;-72
2021/01/31 11:24:02;;;;;;;22.22;10.30;;;;;;;6.58;42.33;98423.14;1679580;85;21070;-72
2021/01/31 11:26:30;;;;;;;16.02;8.03;;;;;;;6.55;42.19;98432.52;1679891;85;22172;-72
2021/01/31 11:28:57;;;;;;;21.37;9.78;;;;;;;6.55;42.03;98426.50;1679506;85;21212;-72
2021/01/31 11:31:26;;;;;;;17.57;8.73;;;;;;;6.18;42.44;98440.65;1679807;85;21098;-72
2021/01/31 11:33:55;;;;;;;19.92;9.70;;;;;;;6.05;44.87;98441.55;1679772;85;21509;-72
2021/01/31 11:36:23;;;;;;;17.17;8.88;;;;;;;6.05;44.87;98441.55;1679552;85;21090;-72
2021/01/31 11:38:50;;;;;;;29.23;12.18;;;;;;;6.13;42.90;98442.15;1679819;85;21493;-72
2021/01/31 11:41:18;;;;;;;20.52;9.13;;;;;;;6.11;44.22;98443.02;1679803;84;21134;-72
2021/01/31 11:43:46;;;;;;;17.60;8.90;;;;;;;6.11;44.22;98443.02;1679906;85;21098;-73
2021/01/31 11:46:13;;;;;;;16.07;7.83;;;;;;;6.25;42.87;98435.55;1679745;85;21083;-73
2021/01/31 11:48:40;;;;;;;16.20;8.35;;;;;;;6.28;42.13;98441.73;1679834;85;21094;-73
2021/01/31 11:51:08;;;;;;;15.20;7.92;;;;;;;6.28;42.13;98441.73;1679560;85;21412;-73
2021/01/31 11:53:36;;;;;;;16.25;6.90;;;;;;;6.35;42.56;98439.37;1679760;85;21118;-73
2021/01/31 11:56:04;;;;;;;18.42;7.25;;;;;;;6.32;42.20;98439.19;1679792;85;21103;-73
2021/01/31 11:58:32;;;;;;;22.13;8.63;;;;;;;6.08;42.50;98450.45;1679743;85;21517;-73
2021/01/31 12:01:00;;;;;;;17.17;7.95;;;;;;;5.91;42.82;98459.33;1679793;85;21162;-73
2021/01/31 12:03:27;;;;;;;17.17;7.72;;;;;;;5.74;42.28;98458.66;1679836;85;21421;-73
2021/01/31 12:05:54;;;;;;;16.55;6.40;;;;;;;5.74;42.28;98458.66;1679503;85;20984;-73